createdAt,value
2022-12-23T00:01:27.471Z,9.05
2022-12-23T00:04:00.213Z,10.98
2022-12-23T00:06:28.891Z,8.13
2022-12-23T00:08:59.356Z,7.63
2022-12-23T00:11:29.516Z,9.98
2022-12-23T00:14:29.943Z,9.48
2022-12-23T00:16:58.310Z,9.43
2022-12-23T00:19:31.122Z,8.40
2022-12-23T00:21:59.454Z,9.77
2022-12-23T00:24:27.872Z,7.40
2022-12-23T00:26:56.218Z,8.75
2022-12-23T00:29:24.693Z,8.65
2022-12-23T00:31:53.018Z,7.97
2022-12-23T00:34:21.399Z,8.65
2022-12-23T00:36:51.102Z,8.15
2022-12-23T00:39:36.687Z,6.95
2022-12-23T00:42:22.398Z,10.32
2022-12-23T00:44:50.794Z,9.32
2022-12-23T00:47:32.930Z,10.77
2022-12-23T00:50:01.367Z,8.50
2022-12-23T00:52:31.078Z,9.38
2022-12-23T00:54:59.537Z,7.32
2022-12-23T00:57:27.821Z,6.63
2022-12-23T00:59:56.165Z,9.10
2022-12-23T01:02:42.080Z,5.13
2022-12-23T01:05:29.645Z,8.13
2022-12-23T01:07:59.448Z,8.05
2022-12-23T01:10:27.825Z,6.85
2022-12-23T01:12:56.198Z,9.30
2022-12-23T01:15:24.625Z,6.80
2022-12-23T01:17:52.903Z,5.80
2022-12-23T01:20:21.719Z,7.63
2022-12-23T01:22:50.045Z,13.45
2022-12-23T01:25:19.705Z,5.03
2022-12-23T01:27:48.080Z,5.93
2022-12-23T01:30:16.588Z,9.23
2022-12-23T01:32:44.900Z,5.30
2022-12-23T01:35:13.203Z,9.10
2022-12-23T01:37:41.675Z,7.97
2022-12-23T01:40:11.084Z,6.80
2022-12-23T01:45:18.923Z,5.68
2022-12-23T01:47:51.843Z,7.65
2022-12-23T01:50:24.070Z,9.05
2022-12-23T01:53:04.591Z,7.85
2022-12-23T01:55:40.089Z,9.82
2022-12-23T01:58:13.239Z,9.13
2022-12-23T02:01:01.133Z,8.50
2022-12-23T02:03:45.233Z,11.52
2022-12-23T02:06:37.615Z,7.35
2022-12-23T02:09:19.060Z,8.35
2022-12-23T02:12:29.880Z,9.27
2022-12-23T02:15:33.643Z,7.57
2022-12-23T02:18:35.448Z,5.88
2022-12-23T02:21:21.617Z,6.00
2022-12-23T02:24:37.333Z,6.20
2022-12-23T02:27:16.529Z,4.45
2022-12-23T02:30:20.032Z,4.43
2022-12-23T02:33:11.394Z,7.43
2022-12-23T02:35:46.475Z,6.80
2022-12-23T02:38:21.985Z,8.02
2022-12-23T02:40:59.546Z,6.00
2022-12-23T02:43:36.852Z,5.97
2022-12-23T02:46:10.677Z,8.45
2022-12-23T02:48:46.939Z,4.47
2022-12-23T02:51:16.677Z,6.03
2022-12-23T02:53:51.400Z,8.88
2022-12-23T02:56:22.131Z,4.78
2022-12-23T02:59:02.904Z,6.32
2022-12-23T03:01:34.487Z,3.75
2022-12-23T03:04:06.551Z,4.75
2022-12-23T03:06:40.180Z,6.70
2022-12-23T03:09:09.367Z,6.65
2022-12-23T03:11:47.131Z,5.80
2022-12-23T03:14:43.427Z,6.28
2022-12-23T03:17:34.479Z,7.50
2022-12-23T03:20:10.550Z,9.43
2022-12-23T03:22:44.990Z,9.85
2022-12-23T03:25:20.427Z,5.60
2022-12-23T03:27:55.909Z,7.85
2022-12-23T03:30:24.949Z,8.20
2022-12-23T03:32:57.263Z,6.55
2022-12-23T03:35:31.535Z,5.50
2022-12-23T03:38:01.718Z,5.60
2022-12-23T03:40:35.233Z,9.05
2022-12-23T03:43:09.575Z,7.45
2022-12-23T03:45:41.880Z,9.25
2022-12-23T03:48:17.272Z,5.07
2022-12-23T03:50:49.796Z,6.93
2022-12-23T03:53:23.621Z,8.82
2022-12-23T03:55:56.970Z,4.90
2022-12-23T03:58:34.708Z,6.38
2022-12-23T04:01:10.525Z,8.02
2022-12-23T04:03:45.222Z,5.55
2022-12-23T04:06:18.768Z,5.95
2022-12-23T04:08:49.262Z,4.65
2022-12-23T04:11:20.723Z,9.27
2022-12-23T04:13:49.536Z,8.05
2022-12-23T04:16:19.406Z,3.88
2022-12-23T04:18:47.732Z,7.75
2022-12-23T04:21:17.408Z,7.78
2022-12-23T04:23:45.877Z,6.10
2022-12-23T04:26:14.132Z,4.40
2022-12-23T04:28:42.416Z,4.07
2022-12-23T04:31:10.799Z,5.80
2022-12-23T04:33:39.208Z,3.33
2022-12-23T04:36:08.126Z,10.25
2022-12-23T04:38:37.814Z,5.18
2022-12-23T04:41:06.263Z,9.05
2022-12-23T04:43:34.618Z,3.60
2022-12-23T04:46:02.991Z,4.50
2022-12-23T04:48:31.352Z,4.85
2022-12-23T04:51:03.413Z,5.35
2022-12-23T04:53:31.827Z,4.30
2022-12-23T04:56:01.597Z,6.03
2022-12-23T04:58:29.904Z,4.53
2022-12-23T05:01:05.382Z,5.57
2022-12-23T05:06:02.161Z,4.65
2022-12-23T05:08:30.898Z,9.00
2022-12-23T05:10:59.166Z,4.80
2022-12-23T05:13:28.903Z,4.50
2022-12-23T05:15:57.510Z,3.58
2022-12-23T05:18:25.896Z,6.65
2022-12-23T05:20:54.220Z,6.90
2022-12-23T05:23:22.546Z,5.35
2022-12-23T05:25:53.183Z,7.40
2022-12-23T05:28:22.160Z,7.63
2022-12-23T05:30:58.849Z,6.93
2022-12-23T05:33:27.454Z,4.68
2022-12-23T05:35:56.149Z,9.48
2022-12-23T05:38:24.871Z,4.05
2022-12-23T05:40:53.854Z,4.13
2022-12-23T05:43:22.711Z,5.97
2022-12-23T05:45:53.372Z,4.72
2022-12-23T05:48:21.832Z,5.72
2022-12-23T05:50:51.512Z,4.35
2022-12-23T05:53:20.719Z,5.97
2022-12-23T05:55:49.239Z,6.18
2022-12-23T05:58:17.976Z,5.75
2022-12-23T06:00:46.279Z,7.88
2022-12-23T06:03:16.125Z,26.33
2022-12-23T06:05:44.542Z,4.68
2022-12-23T06:08:12.913Z,7.18
2022-12-23T06:10:41.213Z,5.78
2022-12-23T06:13:09.529Z,10.82
2022-12-23T06:15:38.140Z,4.18
2022-12-23T06:18:06.620Z,7.22
2022-12-23T06:20:36.316Z,4.80
2022-12-23T06:23:04.719Z,5.82
2022-12-23T06:25:33.099Z,7.90
2022-12-23T06:28:01.529Z,8.70
2022-12-23T06:30:29.863Z,5.53
2022-12-23T06:32:58.139Z,4.88
2022-12-23T06:35:26.442Z,4.05
2022-12-23T06:37:56.292Z,8.52
2022-12-23T06:40:24.629Z,5.85
2022-12-23T06:42:52.919Z,6.55
2022-12-23T06:45:22.809Z,5.60
2022-12-23T06:47:51.397Z,6.65
2022-12-23T06:50:20.641Z,5.95
2022-12-23T06:52:49.221Z,8.40
2022-12-23T06:55:19.095Z,6.00
2022-12-23T06:57:47.405Z,7.65
2022-12-23T07:00:17.074Z,11.80
2022-12-23T07:02:45.534Z,6.18
2022-12-23T07:05:13.852Z,8.20
2022-12-23T07:07:42.291Z,8.18
2022-12-23T07:10:11.048Z,11.45
2022-12-23T07:12:44.774Z,9.90
2022-12-23T07:15:15.823Z,6.82
2022-12-23T07:17:44.173Z,11.60
2022-12-23T07:20:14.428Z,9.13
2022-12-23T07:22:43.070Z,6.93
2022-12-23T07:25:11.621Z,7.22
2022-12-23T07:27:41.388Z,11.30
2022-12-23T07:30:11.051Z,6.82
2022-12-23T07:35:08.195Z,9.50
2022-12-23T07:37:36.545Z,7.32
2022-12-23T07:40:08.558Z,8.68
2022-12-23T07:42:46.524Z,8.18
2022-12-23T07:45:17.049Z,7.60
2022-12-23T07:47:45.393Z,8.05
2022-12-23T07:50:13.757Z,8.75
2022-12-23T07:52:42.169Z,11.40
2022-12-23T07:55:10.867Z,7.95
2022-12-23T07:57:40.031Z,9.10
2022-12-23T08:00:10.750Z,9.85
2022-12-23T08:02:40.788Z,8.25
2022-12-23T08:05:11.827Z,9.70
2022-12-23T08:07:40.228Z,17.13
2022-12-23T08:10:09.832Z,12.07
2022-12-23T08:12:38.174Z,13.43
2022-12-23T08:15:07.910Z,16.00
2022-12-23T08:17:36.266Z,10.98
2022-12-23T08:20:06.848Z,9.18
2022-12-23T08:22:35.150Z,10.30
2022-12-23T08:25:03.468Z,12.10
2022-12-23T08:27:32.231Z,7.47
2022-12-23T08:30:00.520Z,7.97
2022-12-23T08:32:29.408Z,8.93
2022-12-23T08:34:58.669Z,7.47
2022-12-23T08:37:28.667Z,10.82
2022-12-23T08:39:56.994Z,10.82
2022-12-23T08:42:25.296Z,13.80
2022-12-23T08:44:53.694Z,11.15
2022-12-23T08:47:22.063Z,11.68
2022-12-23T08:49:50.340Z,9.95
2022-12-23T08:52:18.652Z,8.13
2022-12-23T08:54:48.401Z,10.52
2022-12-23T08:57:16.680Z,9.43
2022-12-23T08:59:44.991Z,13.25
2022-12-23T09:02:13.447Z,10.18
2022-12-23T09:04:41.888Z,13.13
2022-12-23T09:07:10.262Z,12.85
2022-12-23T09:09:39.193Z,13.25
2022-12-23T09:12:09.090Z,16.70
2022-12-23T09:14:44.218Z,10.48
2022-12-23T09:17:12.647Z,11.50
2022-12-23T09:19:45.874Z,10.35
2022-12-23T09:22:18.708Z,7.57
2022-12-23T09:24:47.042Z,11.82
2022-12-23T09:27:16.744Z,10.15
2022-12-23T09:29:45.124Z,8.43
2022-12-23T09:32:13.415Z,6.25
2022-12-23T09:34:41.961Z,7.43
2022-12-23T09:37:10.404Z,8.05
2022-12-23T09:39:38.654Z,5.88
2022-12-23T09:42:12.581Z,9.48
2022-12-23T09:44:56.096Z,9.05
2022-12-23T09:47:27.686Z,9.13
2022-12-23T09:49:59.829Z,8.75
2022-12-23T09:52:38.130Z,8.45
2022-12-23T09:55:12.114Z,10.90
2022-12-23T09:57:50.380Z,7.95
2022-12-23T10:00:21.186Z,8.82
2022-12-23T10:03:05.446Z,7.50
2022-12-23T10:05:43.846Z,8.13
2022-12-23T10:08:16.467Z,12.43
2022-12-23T10:10:48.429Z,9.30
2022-12-23T10:13:27.002Z,13.43
2022-12-23T10:15:59.443Z,9.35
2022-12-23T10:18:36.773Z,10.20
2022-12-23T10:21:11.731Z,7.90
2022-12-23T10:23:43.773Z,8.73
2022-12-23T10:26:20.945Z,9.95
2022-12-23T10:28:49.337Z,12.40
2022-12-23T10:31:39.806Z,13.32
2022-12-23T10:34:18.734Z,8.70
2022-12-23T10:36:53.372Z,7.90
2022-12-23T10:39:33.641Z,8.65
2022-12-23T10:42:16.149Z,7.00
2022-12-23T10:45:09.162Z,7.78
2022-12-23T10:47:52.856Z,9.07
2022-12-23T10:50:35.847Z,5.45
2022-12-23T10:53:07.620Z,6.30
2022-12-23T10:55:39.444Z,8.70
2022-12-23T10:58:13.207Z,14.10
2022-12-23T11:00:44.693Z,11.27
2022-12-23T11:03:19.845Z,10.27
2022-12-23T11:05:51.026Z,7.57
2022-12-23T11:08:21.191Z,6.30
2022-12-23T11:10:50.147Z,7.47
2022-12-23T11:13:26.041Z,6.15
2022-12-23T11:15:54.634Z,4.53
2022-12-23T11:18:24.413Z,5.82
2022-12-23T11:21:05.124Z,6.10
2022-12-23T11:23:36.552Z,5.88
2022-12-23T11:26:08.141Z,6.28
2022-12-23T11:28:39.480Z,5.72
2022-12-23T11:31:12.020Z,6.75
2022-12-23T11:33:50.086Z,5.05
2022-12-23T11:36:24.632Z,7.07
2022-12-23T11:38:55.312Z,5.13
2022-12-23T11:41:27.467Z,6.40
2022-12-23T11:43:59.679Z,6.07
2022-12-23T11:46:30.394Z,5.47
2022-12-23T11:49:17.701Z,6.22
2022-12-23T11:51:48.571Z,5.38
2022-12-23T11:54:19.346Z,5.25
2022-12-23T11:56:51.583Z,5.13
2022-12-23T11:59:34.041Z,13.02
2022-12-23T12:02:05.884Z,4.65
2022-12-23T12:04:37.509Z,8.15
2022-12-23T12:07:07.888Z,6.78
2022-12-23T12:09:40.785Z,6.78
2022-12-23T12:12:16.349Z,6.00
2022-12-23T12:14:46.712Z,5.30
2022-12-23T12:17:19.134Z,5.13
2022-12-23T12:20:00.424Z,10.13
2022-12-23T12:22:35.396Z,4.80
2022-12-23T12:25:16.789Z,7.68
2022-12-23T12:30:18.793Z,8.18
2022-12-23T12:33:04.259Z,9.57
2022-12-23T12:35:43.370Z,7.10
2022-12-23T12:38:19.689Z,5.68
2022-12-23T12:40:51.972Z,8.15
2022-12-23T12:43:27.427Z,10.00
2022-12-23T12:46:09.810Z,6.85
2022-12-23T12:48:45.981Z,4.45
2022-12-23T12:51:23.733Z,5.93
2022-12-23T12:54:06.552Z,5.57
2022-12-23T12:56:41.664Z,7.63
2022-12-23T12:59:17.114Z,6.60
2022-12-23T13:01:54.168Z,8.75
2022-12-23T13:04:57.740Z,5.75
2022-12-23T13:07:36.429Z,6.22
2022-12-23T13:10:14.809Z,9.23
2022-12-23T13:12:54.452Z,5.18
2022-12-23T13:15:34.294Z,6.18
2022-12-23T13:18:20.690Z,5.88
2022-12-23T13:20:56.542Z,5.75
2022-12-23T13:23:43.469Z,5.97
2022-12-23T13:26:20.388Z,9.07
2022-12-23T13:29:00.678Z,11.10
2022-12-23T13:31:43.334Z,8.30
2022-12-23T13:34:25.318Z,7.90
2022-12-23T13:37:02.881Z,5.88
2022-12-23T13:39:47.068Z,5.75
2022-12-23T13:42:25.122Z,4.85
2022-12-23T13:44:54.070Z,4.57
2022-12-23T13:50:01.132Z,6.47
2022-12-23T13:52:41.612Z,6.18
2022-12-23T13:55:25.919Z,7.97
2022-12-23T13:57:59.681Z,6.57
2022-12-23T14:00:31.817Z,6.90
2022-12-23T14:03:23.544Z,11.18
2022-12-23T14:05:52.760Z,6.75
2022-12-23T14:08:25.962Z,5.78
2022-12-23T14:10:59.947Z,5.32
2022-12-23T14:13:31.362Z,6.32
2022-12-23T14:16:20.931Z,6.78
2022-12-23T14:19:21.132Z,7.05
2022-12-23T14:21:59.729Z,6.05
2022-12-23T14:24:58.073Z,6.18
2022-12-23T14:27:43.869Z,8.02
2022-12-23T14:30:16.719Z,9.55
2022-12-23T14:32:49.100Z,9.55
2022-12-23T14:35:24.522Z,8.43
2022-12-23T14:38:27.403Z,12.48
2022-12-23T14:41:24.631Z,12.02
2022-12-23T14:44:03.203Z,6.30
2022-12-23T14:46:59.487Z,7.90
2022-12-23T14:49:44.172Z,5.40
2022-12-23T14:52:44.433Z,7.22
2022-12-23T14:55:44.401Z,11.45
2022-12-23T14:58:45.190Z,73.38
2022-12-23T15:01:18.100Z,29.15
2022-12-23T15:03:53.284Z,26.63
2022-12-23T15:06:33.498Z,135.52
2022-12-23T15:09:02.788Z,157.43
2022-12-23T15:11:34.205Z,66.55
2022-12-23T15:14:05.763Z,37.88
2022-12-23T15:16:38.685Z,40.72
2022-12-23T15:19:19.391Z,27.50
2022-12-23T15:21:55.667Z,95.15
2022-12-23T15:24:28.770Z,89.65
2022-12-23T15:27:25.350Z,101.28
2022-12-23T15:29:49.306Z,114.03
2022-12-23T15:32:19.675Z,144.45
2022-12-23T15:34:49.219Z,115.80
2022-12-23T15:37:20.180Z,70.72
2022-12-23T15:39:54.149Z,51.05
2022-12-23T15:42:31.300Z,46.58
2022-12-23T15:44:59.784Z,58.42
2022-12-23T15:47:32.027Z,56.95
2022-12-23T15:50:01.084Z,51.47
2022-12-23T15:52:31.613Z,25.17
2022-12-23T15:55:03.839Z,30.73
2022-12-23T15:57:32.912Z,31.63
2022-12-23T16:00:01.931Z,31.23
2022-12-23T16:03:00.319Z,34.47
2022-12-23T16:05:30.012Z,38.90
2022-12-23T16:08:12.077Z,34.58
2022-12-23T16:10:41.886Z,40.05
2022-12-23T16:13:19.147Z,35.38
2022-12-23T16:15:48.050Z,30.42
2022-12-23T16:18:22.753Z,24.80
2022-12-23T16:20:53.570Z,32.47
2022-12-23T16:23:22.825Z,38.28
2022-12-23T16:25:54.047Z,41.90
2022-12-23T16:28:24.441Z,31.02
2022-12-23T16:30:54.760Z,31.80
2022-12-23T16:33:38.435Z,32.33
2022-12-23T16:36:18.406Z,39.80
2022-12-23T16:38:47.849Z,40.20
2022-12-23T16:41:16.485Z,34.35
2022-12-23T16:43:51.518Z,22.08
2022-12-23T16:46:23.212Z,25.27
2022-12-23T16:48:55.782Z,24.10
2022-12-23T16:51:25.224Z,21.45
2022-12-23T16:53:55.080Z,19.88
2022-12-23T16:56:27.565Z,16.75
2022-12-23T16:58:55.836Z,24.42
2022-12-23T17:01:27.191Z,24.02
2022-12-23T17:03:56.935Z,27.98
2022-12-23T17:06:26.056Z,24.70
2022-12-23T17:08:55.017Z,28.05
2022-12-23T17:11:27.336Z,25.70
2022-12-23T17:14:03.325Z,17.90
2022-12-23T17:16:33.429Z,14.88
2022-12-23T17:19:03.366Z,14.00
2022-12-23T17:21:35.089Z,17.58
2022-12-23T17:24:06.350Z,16.15
2022-12-23T17:26:34.831Z,16.95
2022-12-23T17:29:03.659Z,15.57
2022-12-23T17:31:33.319Z,13.85
2022-12-23T17:34:03.331Z,13.38
2022-12-23T17:36:31.868Z,15.35
2022-12-23T17:39:00.200Z,16.10
2022-12-23T17:41:32.244Z,14.07
2022-12-23T17:44:01.196Z,14.43
2022-12-23T17:46:30.883Z,18.38
2022-12-23T17:48:59.544Z,15.13
2022-12-23T17:51:29.247Z,20.67
2022-12-23T17:53:59.284Z,17.25
2022-12-23T17:56:29.212Z,17.83
2022-12-23T17:58:57.508Z,13.65
2022-12-23T18:01:27.931Z,15.70
2022-12-23T18:03:58.008Z,17.10
2022-12-23T18:06:30.005Z,20.55
2022-12-23T18:08:58.473Z,23.13
2022-12-23T18:11:34.918Z,22.35
2022-12-23T18:14:04.769Z,19.05
2022-12-23T18:16:33.386Z,17.95
2022-12-23T18:19:01.725Z,23.98
2022-12-23T18:21:31.467Z,21.88
2022-12-23T18:24:01.303Z,21.00
2022-12-23T18:26:29.722Z,21.65
2022-12-23T18:28:58.018Z,16.65
2022-12-23T18:31:27.383Z,19.20
2022-12-23T18:33:56.566Z,18.73
2022-12-23T18:36:27.061Z,17.60
2022-12-23T18:38:57.195Z,17.38
2022-12-23T18:41:27.053Z,11.35
2022-12-23T18:43:55.917Z,14.50
2022-12-23T18:46:24.361Z,15.35
2022-12-23T18:48:53.870Z,16.23
2022-12-23T18:51:22.632Z,18.05
2022-12-23T18:53:51.260Z,20.83
2022-12-23T18:56:21.468Z,15.82
2022-12-23T18:58:49.839Z,16.95
2022-12-23T19:01:19.259Z,16.25
2022-12-23T19:03:48.237Z,16.40
2022-12-23T19:06:17.295Z,20.38
2022-12-23T19:08:45.891Z,18.48
2022-12-23T19:11:15.306Z,16.20
2022-12-23T19:13:45.486Z,18.45
2022-12-23T19:16:15.379Z,19.73
2022-12-23T19:18:44.217Z,17.60
2022-12-23T19:21:12.834Z,18.48
2022-12-23T19:23:42.031Z,12.30
2022-12-23T19:26:10.756Z,12.98
2022-12-23T19:28:39.379Z,14.85
2022-12-23T19:31:10.291Z,13.38
2022-12-23T19:33:39.010Z,17.33
2022-12-23T19:36:11.887Z,15.32
2022-12-23T19:38:40.574Z,13.25
2022-12-23T19:41:09.858Z,14.38
2022-12-23T19:43:39.774Z,14.07
2022-12-23T19:46:12.263Z,14.00
2022-12-23T19:48:40.585Z,12.48
2022-12-23T19:51:12.301Z,11.80
2022-12-23T19:53:41.720Z,12.02
2022-12-23T19:56:13.125Z,11.13
2022-12-23T19:58:43.718Z,9.40
2022-12-23T20:01:15.725Z,11.32
2022-12-23T20:03:46.408Z,12.52
2022-12-23T20:06:17.313Z,14.45
2022-12-23T20:08:45.838Z,16.85
2022-12-23T20:11:15.771Z,14.65
2022-12-23T20:13:44.310Z,15.38
2022-12-23T20:16:14.394Z,14.23
2022-12-23T20:18:42.863Z,26.65
2022-12-23T20:21:11.392Z,15.25
2022-12-23T20:23:39.747Z,14.70
2022-12-23T20:26:08.215Z,16.00
2022-12-23T20:28:36.596Z,15.32
2022-12-23T20:31:09.594Z,14.77
2022-12-23T20:33:42.556Z,17.58
2022-12-23T20:36:12.688Z,14.15
2022-12-23T20:38:43.225Z,14.55
2022-12-23T20:41:13.351Z,17.33
2022-12-23T20:43:41.810Z,15.25
2022-12-23T20:46:12.975Z,25.50
2022-12-23T20:48:43.184Z,15.80
2022-12-23T20:51:13.540Z,19.00
2022-12-23T20:53:42.730Z,21.10
2022-12-23T20:56:16.480Z,20.98
2022-12-23T20:58:58.506Z,15.07
2022-12-23T21:01:29.321Z,18.95
2022-12-23T21:04:00.745Z,14.73
2022-12-23T21:06:30.150Z,14.75
2022-12-23T21:09:00.079Z,14.20
2022-12-23T21:11:30.715Z,13.98
2022-12-23T21:14:06.188Z,15.85
2022-12-23T21:16:36.607Z,10.38
2022-12-23T21:19:07.366Z,10.57
2022-12-23T21:21:35.873Z,15.52
2022-12-23T21:24:05.290Z,11.35
2022-12-23T21:26:35.145Z,9.35
2022-12-23T21:29:05.138Z,17.15
2022-12-23T21:31:36.336Z,15.40
2022-12-23T21:34:06.359Z,12.38
2022-12-23T21:36:37.636Z,9.77
2022-12-23T21:39:07.417Z,15.18
2022-12-23T21:41:37.302Z,13.07
2022-12-23T21:44:06.450Z,14.52
2022-12-23T21:46:35.589Z,24.10
2022-12-23T21:49:04.601Z,17.23
2022-12-23T21:51:40.129Z,19.15
2022-12-23T21:54:10.736Z,16.48
2022-12-23T21:56:40.354Z,20.05
2022-12-23T21:59:11.664Z,17.13
2022-12-23T22:01:40.591Z,17.90
2022-12-23T22:04:08.884Z,14.35
2022-12-23T22:06:40.397Z,13.05
2022-12-23T22:09:09.435Z,12.43
2022-12-23T22:11:38.971Z,13.82
2022-12-23T22:14:09.500Z,10.73
2022-12-23T22:16:38.243Z,11.45
2022-12-23T22:19:08.713Z,11.77
2022-12-23T22:21:39.946Z,15.45
2022-12-23T22:24:09.214Z,8.50
2022-12-23T22:26:37.636Z,12.65
2022-12-23T22:29:07.386Z,16.05
2022-12-23T22:31:39.991Z,16.15
2022-12-23T22:34:09.775Z,12.02
2022-12-23T22:36:39.598Z,13.18
2022-12-23T22:39:08.309Z,14.15
2022-12-23T22:41:36.672Z,11.40
2022-12-23T22:44:05.955Z,13.20
2022-12-23T22:46:34.744Z,12.80
2022-12-23T22:49:03.412Z,13.52
2022-12-23T22:51:32.752Z,10.55
2022-12-23T22:54:03.904Z,11.73
2022-12-23T22:56:32.307Z,11.43
2022-12-23T22:59:00.890Z,13.32
2022-12-23T23:01:34.749Z,14.65
2022-12-23T23:04:04.503Z,14.40
2022-12-23T23:06:34.905Z,12.10
2022-12-23T23:09:06.194Z,13.50
2022-12-23T23:11:34.582Z,13.80
2022-12-23T23:14:03.168Z,11.10
2022-12-23T23:16:31.705Z,14.32
2022-12-23T23:19:00.968Z,15.20
2022-12-23T23:21:29.337Z,14.18
2022-12-23T23:24:01.502Z,12.75
2022-12-23T23:26:32.878Z,13.00
2022-12-23T23:29:02.145Z,14.52
2022-12-23T23:31:45.858Z,13.48
2022-12-23T23:34:14.758Z,12.73
2022-12-23T23:36:43.242Z,16.45
2022-12-23T23:39:13.510Z,16.75
2022-12-23T23:41:43.658Z,17.85
2022-12-23T23:44:13.017Z,11.50
2022-12-23T23:49:09.735Z,11.80
2022-12-23T23:51:38.416Z,12.05
2022-12-23T23:54:07.470Z,14.05
2022-12-23T23:56:39.235Z,17.73
2022-12-23T23:59:09.872Z,13.18
